James Foster

Scout - Sunderland
3 Dez 2028
Sonntag
Verarbeitung

Persönlichkeit

Anpassungsfähigkeit (9) Ehrgeiz (19) Kontroverse (11) Loyalität (12) Druck (12) Professionalität (15) Fairness (15) Temperament (19)

Profil

Trainerstil Demokratisch
Lizenz Kontinentale Pro
Entschlossenheit 8
Menschenführung 10
Motivation 6
Disziplin 9
Arbeitszufriedenheit
100%
Ermüdung
0%
Rolle Scout
Gehalt 62.3K p/W
Vertrag 14.03.2030

Leistung

Verhalten Gut
Trainingseffektivität
44%
Spielerentwicklung
45%
Verletzungsprävention
45%
Taktische Umsetzung
35%

Letzte Ereignisse

Nahm an einer Scouting-Besprechung teil 7T her
Empfahl ein Transferziel 7T her
Nahm an einer Scouting-Besprechung teil 14T her
Empfahl ein Transferziel 14T her
Nahm an einer Scouting-Besprechung teil 21T her
Empfahl ein Transferziel 21T her
Nahm an einer Scouting-Besprechung teil 28T her
Empfahl ein Transferziel 28T her

Aktuell beobachtet

122
Spieler Verein Status Fähigkeit Vertrauen Beobachtet Zuletzt beobachtet Letzte Stimme
Liam Thompson Mansfield Town Verloren 125 / 128 83% 1 28.08.2028 -
Harrison Armstrong Ipswich Town Aktiv 138 / 142 40% 1 31.07.2028 -
Tobías Andrada River Plate Aktiv 118 / 120 40% 1 31.07.2028 -
Kiani Inge Groningen Aktiv 112 / 122 40% 1 31.07.2028 -
Christos Mouzakitis Hull City Aktiv 136 / 151 40% 8 18.07.2028 -
Mirza Ćatović VfB Stuttgart Aktiv 126 / 125 40% 1 18.07.2028 -
Augusto Bando Ascoli Aktiv 109 / 117 40% 1 18.07.2028 -
Sydie Peck Swindon Town Verloren 137 / 138 83% 1 17.07.2028 -
Kerim Alajbegović Modena Aktiv 135 / 142 40% 5 30.05.2028 -
Jake Evans Crewe Alexandra Aktiv 108 / 125 40% 7 28.05.2028 -
Eli Junior Kroupi Bournemouth Aktiv 146 / 153 40% 4 28.05.2028 -
Ryan McAidoo Oldham Athletic Aktiv 122 / 127 40% 8 23.05.2028 -
Ibrahim Fullah Charlton Athletic Aktiv 125 / 120 40% 7 23.05.2028 -
Rio Ngumoha Plymouth Argyle Aktiv 137 / 153 40% 4 23.05.2028 -
Martim Cunha Porto Aktiv 105 / 116 40% 4 22.05.2028 -
Daniel Banjaqui Benfica Aktiv 120 / 129 40% 3 22.05.2028 -
Ryan Oné Sheffield United Aktiv 125 / 130 40% 1 22.05.2028 -
Igor Tyjon Barrow AFC Aktiv 118 / 126 40% 9 20.05.2028 -
Josh Nichols Oldham Athletic Aktiv 121 / 129 40% 5 20.05.2028 -
André Miranda Porto Aktiv 118 / 121 40% 7 20.05.2028 -
Shea Lacey Crystal Palace Aktiv 131 / 141 40% 8 19.05.2028 -
Endrick Boca Juniors Aktiv 159 / 166 40% 3 19.05.2028 -
Babis Kostoulas Oxford United Aktiv 146 / 147 40% 11 14.05.2028 -
Henrique Carmo Sochi Aktiv 132 / 130 40% 8 12.05.2028 -
Luca Williams-Barnett Walsall Aktiv 123 / 133 40% 4 12.05.2028 -
Giovanni Cantizano Fulham Aktiv 118 / 122 40% 6 11.05.2028 -
Jan Bürger Northampton Town Aktiv 123 / 121 40% 6 09.05.2028 -
Mateus Mané Burnley Aktiv 145 / 147 40% 6 07.05.2028 -
Gabriel Mec Feirense Aktiv 129 / 129 40% 6 04.05.2028 -
Jamal Iddrissou Pergolettese Aktiv 112 / 120 40% 1 04.05.2028 -
Eduardo Fernandes Benfica Aktiv 116 / 120 40% 3 03.05.2028 -
Oscar Schwartau Norwich City Aktiv 126 / 132 40% 6 01.05.2028 -
Ben Broggio Mansfield Town Aktiv 105 / 119 40% 4 01.05.2028 -
Bernardo Lima Porto Aktiv 112 / 121 40% 1 01.05.2028 -
Josh Acheampong Everton Aktiv 144 / 148 40% 3 28.04.2028 -
Honest Ahanor Atalanta Aktiv 134 / 141 40% 8 27.04.2028 -
Ryan Kavuma-McQueen Accrington Stanley Aktiv 119 / 134 40% 3 24.04.2028 -
Oskar Pietuszewski Estrela da Amadora Aktiv 130 / 135 40% 3 24.04.2028 -
Trey Nyoni Rotherham United Aktiv 142 / 151 40% 4 23.04.2028 -
Romelle Donovan Brentford Aktiv 127 / 130 40% 8 22.04.2028 -
Otto Stange Borussia Mönchengladbach Aktiv 123 / 131 40% 3 22.04.2028 -
Amin Nabizada Exeter City Aktiv 109 / 114 40% 5 14.04.2028 -
Gabe Forsyth Colchester United Aktiv 109 / 113 40% 6 11.04.2028 -
İsak Vural Audace Cerignola Aktiv 123 / 124 40% 1 09.04.2028 -
Omar Khedr Gillingham Aktiv 116 / 124 40% 5 07.04.2028 -
Ethan Nwaneri Arsenal Aktiv 152 / 153 40% 2 29.03.2028 -
Sindre Walle Egeli Udinese Aktiv 136 / 142 40% 10 10.03.2028 -
Alphadjo Cissé Lecce Aktiv 135 / 135 40% 2 25.02.2028 -
Julian Hall Real Salt Lake Aktiv 103 / 112 40% 2 24.02.2028 -
Bazoumana Touré Newcastle United Aktiv 147 / 156 40% 4 22.02.2028 -
Tyler Fletcher Rotherham United Aktiv 115 / 123 40% 2 18.02.2028 -
Esquerdinha Notts County Aktiv 123 / 131 40% 1 11.02.2028 -
Lewis Orford Crewe Alexandra Aktiv 106 / 114 40% 1 08.02.2028 -
Ole Romeny Oxford United Aktiv 112 / 117 83% 1 24.01.2028 -
Vangelis Pavlidis Real Madrid Aktiv 152 / 152 90% 1 17.01.2028 -
Archie Gray Southampton Aktiv 154 / 153 40% 1 11.01.2028 -
Gabri Veiga Getafe Aktiv 147 / 149 93% 1 01.01.2028 -
Mao Hosoya Santos Aktiv 134 / 135 67% 1 01.01.2028 -
Lander Astiazarán Real Sociedad Aktiv 100 / 114 40% 3 02.06.2027 -
Marvin Keller Chelsea Aktiv 136 / 137 67% 1 01.06.2027 -
Ilyas Ansah Hull City Aktiv 137 / 136 40% 3 29.05.2027 -
Joe Gelhardt Hull City Aktiv 139 / 132 40% 4 28.05.2027 -
Giacomo Raspadori Atalanta Aktiv 153 / 148 40% 6 28.05.2027 -
Nicolas Jackson Aston Villa Aktiv 149 / 149 40% 7 25.05.2027 -
Thiago Brentford Aktiv 149 / 143 40% 4 25.05.2027 -
Mees Rijks Bristol Rovers Aktiv 115 / 111 40% 2 25.05.2027 -
Lorent Tolaj Plymouth Argyle Aktiv 114 / 122 40% 3 24.05.2027 -
Josh Coburn Millwall Aktiv 118 / 126 40% 2 24.05.2027 -
Mohamed-Ali Cho Hull City Aktiv 141 / 131 40% 3 23.05.2027 -
Tyrese Campbell Sheffield United Aktiv 124 / 131 40% 2 23.05.2027 -
Othmane Maamma Watford Aktiv 126 / 127 40% 2 22.05.2027 -
Malik Mothersille Stockport County Aktiv 111 / 117 40% 6 19.05.2027 -
Aune Heggebø West Bromwich Albion Aktiv 131 / 124 40% 4 19.05.2027 -
Nestory Irankunda Watford Aktiv 124 / 132 40% 3 19.05.2027 -
Mohamadou Kanté Crawley Town Aktiv 117 / 117 40% 1 18.05.2027 -
Rodrigo Muniz Fulham Aktiv 135 / 134 40% 3 15.05.2027 -
Sam Greenwood Bristol City Aktiv 118 / 120 40% 4 12.05.2027 -
Jørgen Strand Larsen Brighton Aktiv 147 / 148 40% 2 12.05.2027 -
Yousef Salech Cardiff City Aktiv 122 / 131 40% 5 11.05.2027 -
Luke Baartman Ajax Cape Town Aktiv 98 / 118 40% 2 11.05.2027 -
Caleb Yirenkyi Coventry City Aktiv 135 / 143 40% 1 10.05.2027 -
Lorenzo Colombo Genoa Aktiv 140 / 137 40% 1 09.05.2027 -
Marezi Portsmouth Aktiv 115 / 123 40% 1 06.05.2027 -
Fábio Carvalho Brentford Aktiv 142 / 134 40% 1 06.05.2027 -
Nicolò Zaniolo Udinese Aktiv 147 / 140 40% 1 05.05.2027 -
Wandile Duba ASO Chlef Aktiv 103 / 103 40% 5 03.05.2027 -
Leo Castledine Middlesbrough Aktiv 125 / 134 40% 1 02.05.2027 -
Ethan Williams Peterborough United Aktiv 116 / 113 40% 1 01.05.2027 -
Eddie Nketiah Crystal Palace Aktiv 146 / 141 40% 2 29.04.2027 -
Stephen Amankona Aduana Stars Aktiv 92 / 100 40% 2 22.04.2027 -
Mathys Tel Tottenham Aktiv 138 / 152 40% 2 20.04.2027 -
Riley Owen Stevenage Aktiv 103 / 104 40% 1 20.04.2027 -
Georginio Rutter Brighton Aktiv 148 / 143 40% 7 04.04.2027 -
Erick Dolly Black Aces Aktiv 107 / 116 40% 4 03.04.2027 -
Etiosa Ighodaro Kaizer Chiefs Aktiv 108 / 112 40% 3 26.03.2027 -
Evidence Makgopa Orlando Pirates Aktiv 108 / 110 40% 1 20.03.2027 -
Iliman N'Diaye Everton Aktiv 155 / 159 40% 5 28.12.2026 -
Jack Rudoni Coventry City Aktiv 134 / 137 40% 1 27.12.2026 -
Manu Koné AS Roma Aktiv 166 / 158 40% 2 25.12.2026 -
Sandro Tonali Tottenham Aktiv 171 / 169 40% 2 13.12.2026 -
Adam Wharton Crystal Palace Aktiv 147 / 149 40% 1 13.12.2026 -
Amine Adli Bournemouth Aktiv 144 / 137 40% 2 12.12.2026 -
Jadon Sancho Manchester United Aktiv 146 / 148 40% 1 08.12.2026 -
Alex Scott Bournemouth Aktiv 150 / 150 40% 2 05.12.2026 -
Kevin Fulham Aktiv 145 / 144 40% 3 05.12.2026 -
Savinho Tottenham Aktiv 157 / 153 40% 2 04.12.2026 -
Tino Livramento Newcastle United Aktiv 149 / 158 40% 1 04.12.2026 -
Manor Solomon West Ham United Aktiv 141 / 142 40% 3 03.12.2026 -
Reece James Chelsea Aktiv 174 / 170 40% 1 03.12.2026 -
Florentino Luís Ipswich Town Aktiv 143 / 136 40% 1 02.12.2026 -
Xavi Simons Tottenham Aktiv 155 / 161 40% 1 02.12.2026 -
Dejan Joveljić Seattle Sounders Aktiv 129 / 129 40% 2 29.11.2026 -
Mats Wieffer Brighton Aktiv 152 / 141 40% 1 27.11.2026 -
Wessam Abou Ali Columbus Crew Aktiv 135 / 125 40% 2 21.11.2026 -
Óscar Mingueza Crystal Palace Aktiv 155 / 153 40% 1 18.11.2026 -
Mikkel Damsgaard Brentford Aktiv 145 / 140 40% 1 16.11.2026 -
Kévin Denkey FC Cincinnati Aktiv 124 / 120 40% 1 15.11.2026 -
Sota Kitano Red Bull Salzburg Aktiv 124 / 118 40% 1 15.11.2026 -
Moisés Caicedo Chelsea Aktiv 171 / 164 40% 1 12.11.2026 -
Martín Ojeda Orlando City Aktiv 139 / 138 40% 2 09.11.2026 -
Matt O'Riley Brighton Aktiv 148 / 140 40% 1 09.11.2026 -
Maxim De Cuyper Brighton Aktiv 137 / 134 76% 1 24.08.2026 Befürworten